Time;durP1;ratioP1;P1;durP2;ratioP2;P2;SDS_P1;SDS_P2;PMS_P1;PMS_P2;Temp;Humidity;BMP_temperature;BMP_pressure;BME280_temperature;BME280_humidity;BME280_pressure;Samples;Min_cycle;Max_cycle;Signal;HPM_P1;HPM_P2
2022/07/12 00:00:54;;;;;;;2.85;2.17;;;24.50;78.10;;;;;;5014358;28;20030;-71
2022/07/12 00:03:19;;;;;;;4.10;2.58;;;24.50;78.10;;;;;;5014102;28;20475;-71
2022/07/12 00:05:45;;;;;;;5.85;2.70;;;24.50;78.30;;;;;;5014059;28;20424;-71
2022/07/12 00:08:10;;;;;;;2.50;2.17;;;24.50;78.90;;;;;;5014364;28;20112;-72
2022/07/12 00:10:36;;;;;;;3.58;2.25;;;24.50;78.20;;;;;;5014191;28;20050;-72
2022/07/12 00:13:03;;;;;;;2.95;2.40;;;24.50;78.40;;;;;;5013719;28;20038;-72
2022/07/12 00:15:29;;;;;;;3.92;2.10;;;24.50;78.40;;;;;;5013889;28;20026;-72
2022/07/12 00:17:54;;;;;;;4.70;2.25;;;24.40;78.30;;;;;;5013941;28;20093;-72
2022/07/12 00:20:20;;;;;;;2.72;2.17;;;24.40;78.30;;;;;;5014068;28;20044;-72
2022/07/12 00:22:46;;;;;;;1.75;1.60;;;24.40;78.40;;;;;;5014089;28;20026;-72
2022/07/12 00:25:12;;;;;;;3.15;2.78;;;24.40;78.40;;;;;;5014015;28;20105;-71
2022/07/12 00:27:37;;;;;;;3.00;2.20;;;24.50;78.40;;;;;;5013736;28;20120;-72
2022/07/12 00:30:05;;;;;;;5.45;2.17;;;24.40;78.40;;;;;;5013892;28;20040;-71
2022/07/12 00:32:30;;;;;;;3.17;2.03;;;24.40;78.50;;;;;;5013968;28;20141;-71
2022/07/12 00:34:56;;;;;;;2.70;2.22;;;24.30;78.60;;;;;;5013665;28;20057;-71
2022/07/12 00:37:21;;;;;;;3.58;2.40;;;24.40;78.70;;;;;;5013447;28;20037;-72
2022/07/12 00:39:48;;;;;;;2.97;2.53;;;24.30;78.80;;;;;;5013729;28;20485;-71
2022/07/12 00:42:13;;;;;;;2.47;2.28;;;24.30;78.80;;;;;;5013405;28;20064;-71
2022/07/12 00:44:39;;;;;;;2.92;2.35;;;24.30;79.50;;;;;;5013922;28;20073;-72
2022/07/12 00:47:06;;;;;;;2.25;2.05;;;24.30;78.90;;;;;;5013256;28;20018;-72
2022/07/12 00:49:31;;;;;;;2.85;2.53;;;24.30;78.80;;;;;;5013572;28;20034;-72
2022/07/12 00:51:57;;;;;;;4.03;2.10;;;24.30;78.90;;;;;;5013458;28;20022;-72
2022/07/12 00:54:23;;;;;;;2.45;2.25;;;24.30;79.00;;;;;;5013511;28;20077;-72
2022/07/12 00:56:49;;;;;;;2.40;2.20;;;24.30;79.10;;;;;;5013173;28;20037;-72
2022/07/12 00:59:15;;;;;;;2.17;1.98;;;24.20;79.10;;;;;;5013447;28;20036;-72
2022/07/12 01:01:42;;;;;;;2.45;2.25;;;24.20;79.10;;;;;;4995573;28;20026;-72
2022/07/12 01:04:08;;;;;;;2.88;2.15;;;24.30;79.10;;;;;;5013634;28;20022;-72
2022/07/12 01:06:35;;;;;;;2.38;2.17;;;24.20;79.10;;;;;;5013349;28;20045;-72
2022/07/12 01:09:02;;;;;;;2.42;2.22;;;24.20;79.20;;;;;;4995874;28;20486;-72
2022/07/12 01:11:28;;;;;;;5.07;2.25;;;24.20;79.30;;;;;;5011668;28;20081;-71
2022/07/12 01:13:54;;;;;;;5.22;2.35;;;24.10;79.40;;;;;;5013256;28;20097;-71
2022/07/12 01:16:20;;;;;;;3.58;2.25;;;24.10;79.50;;;;;;5013137;28;20029;-72
2022/07/12 01:18:46;;;;;;;2.45;2.00;;;24.10;79.40;;;;;;5013370;28;20076;-71
2022/07/12 01:21:19;;;;;;;2.55;2.35;;;24.10;79.60;;;;;;5013257;28;20101;-71
2022/07/12 01:23:47;;;;;;;4.53;2.42;;;24.10;79.60;;;;;;5013352;28;20021;-72
2022/07/12 01:26:12;;;;;;;4.65;2.58;;;24.10;79.80;;;;;;5012980;28;20093;-72
2022/07/12 01:28:38;;;;;;;2.72;2.47;;;24.10;79.80;;;;;;5013075;28;20475;-72
2022/07/12 01:31:04;;;;;;;3.85;2.70;;;24.00;79.70;;;;;;5013077;28;20471;-71
2022/07/12 01:33:30;;;;;;;2.45;2.25;;;24.00;79.70;;;;;;5013515;28;20026;-72
2022/07/12 01:35:57;;;;;;;3.22;2.17;;;24.00;79.60;;;;;;5013175;28;20037;-71
2022/07/12 01:38:22;;;;;;;2.35;2.15;;;24.00;79.60;;;;;;5012192;28;20034;-72
2022/07/12 01:40:48;;;;;;;2.75;2.42;;;24.00;79.60;;;;;;5012028;28;20048;-72
2022/07/12 01:43:14;;;;;;;2.67;2.38;;;24.00;79.60;;;;;;5011415;28;20033;-71
2022/07/12 01:45:41;;;;;;;3.80;2.28;;;24.00;79.70;;;;;;5012605;28;20018;-71
2022/07/12 01:48:06;;;;;;;3.03;2.15;;;24.00;79.80;;;;;;5015239;28;20093;-71
2022/07/12 01:50:32;;;;;;;4.72;2.38;;;23.90;79.70;;;;;;5016850;28;20423;-72
2022/07/12 01:53:00;;;;;;;2.67;2.47;;;24.00;79.70;;;;;;5016547;28;20030;-72
2022/07/12 01:55:26;;;;;;;3.08;2.75;;;23.90;79.60;;;;;;5016519;28;20018;-72
2022/07/12 01:57:52;;;;;;;2.63;2.35;;;23.90;79.70;;;;;;5016227;28;20456;-72
2022/07/12 02:00:19;;;;;;;2.63;2.15;;;23.90;79.80;;;;;;5016800;28;20077;-71
2022/07/12 02:02:46;;;;;;;2.88;2.25;;;23.90;79.80;;;;;;5016410;28;20102;-71
2022/07/12 02:05:12;;;;;;;3.85;2.00;;;23.90;79.90;;;;;;5016494;28;20018;-72
2022/07/12 02:07:39;;;;;;;2.45;2.05;;;23.90;79.90;;;;;;5016420;28;20056;-72
2022/07/12 02:10:06;;;;;;;2.35;2.15;;;23.80;80.00;;;;;;5015960;28;20026;-71
2022/07/12 02:12:32;;;;;;;2.75;2.28;;;23.80;80.00;;;;;;5016100;28;20030;-71
2022/07/12 02:14:57;;;;;;;2.83;1.98;;;23.80;80.00;;;;;;5016624;28;20020;-71
2022/07/12 02:17:23;;;;;;;2.40;2.20;;;23.80;80.10;;;;;;5016340;28;20499;-71
2022/07/12 02:19:48;;;;;;;2.33;2.00;;;23.80;80.20;;;;;;5016581;28;20084;-71
2022/07/12 02:22:14;;;;;;;3.28;2.35;;;23.80;80.10;;;;;;5016035;28;20026;-72
2022/07/12 02:24:40;;;;;;;2.58;2.38;;;23.70;80.10;;;;;;5016318;28;20026;-71
2022/07/12 02:27:06;;;;;;;2.63;1.90;;;23.70;80.30;;;;;;5016141;28;20537;-71
2022/07/12 02:29:32;;;;;;;3.03;2.30;;;23.70;80.40;;;;;;5016089;28;20057;-72
2022/07/12 02:31:57;;;;;;;3.70;2.55;;;23.70;80.40;;;;;;5016030;28;20053;-72
2022/07/12 02:34:23;;;;;;;2.95;2.40;;;23.70;80.30;;;;;;5015842;28;20048;-72
2022/07/12 02:36:48;;;;;;;2.75;2.35;;;23.70;80.50;;;;;;5015764;28;20026;-71
2022/07/12 02:39:14;;;;;;;3.00;2.55;;;23.70;80.50;;;;;;5015590;28;20034;-71
2022/07/12 02:41:40;;;;;;;2.80;2.50;;;23.70;80.40;;;;;;5016060;28;20021;-71
2022/07/12 02:44:05;;;;;;;3.85;3.03;;;23.60;80.60;;;;;;5015521;28;20088;-72
2022/07/12 02:46:31;;;;;;;3.80;2.53;;;23.60;80.60;;;;;;5015797;28;20022;-71
2022/07/12 02:48:57;;;;;;;2.50;2.30;;;23.70;80.50;;;;;;5015672;28;20104;-72
2022/07/12 02:51:23;;;;;;;2.65;2.28;;;23.60;80.60;;;;;;5015638;28;20026;-71
2022/07/12 02:53:48;;;;;;;5.28;2.58;;;23.60;80.70;;;;;;5015377;28;20025;-72
2022/07/12 02:56:14;;;;;;;4.20;2.40;;;23.60;80.60;;;;;;5015823;28;20490;-71
2022/07/12 02:58:39;;;;;;;3.58;2.50;;;23.60;80.60;;;;;;5014291;28;20034;-72
2022/07/12 03:01:05;;;;;;;4.05;2.47;;;23.60;80.70;;;;;;5015369;28;20018;-72
2022/07/12 03:03:31;;;;;;;3.75;2.60;;;23.50;80.80;;;;;;5015401;28;20038;-71
2022/07/12 03:05:58;;;;;;;2.55;2.35;;;23.50;80.90;;;;;;5015285;28;20026;-71
2022/07/12 03:08:23;;;;;;;3.75;2.30;;;23.50;80.70;;;;;;5014968;28;20018;-72
2022/07/12 03:10:49;;;;;;;3.55;2.10;;;23.60;80.70;;;;;;5015237;28;20112;-71
2022/07/12 03:13:14;;;;;;;3.90;2.17;;;23.50;81.40;;;;;;5015073;28;20057;-71
2022/07/12 03:15:40;;;;;;;2.78;2.58;;;23.40;80.80;;;;;;5014975;28;20026;-72
2022/07/12 03:18:06;;;;;;;2.85;2.38;;;23.50;81.50;;;;;;5015162;28;20053;-71
2022/07/12 03:20:32;;;;;;;5.15;2.90;;;23.40;80.90;;;;;;5015191;28;20498;-71
2022/07/12 03:22:58;;;;;;;3.13;2.58;;;23.50;80.80;;;;;;5014623;28;20494;-71
2022/07/12 03:25:24;;;;;;;6.80;2.70;;;23.40;80.90;;;;;;5014751;28;20389;-71
2022/07/12 03:27:49;;;;;;;3.22;2.53;;;23.40;80.90;;;;;;5015067;28;20029;-72
2022/07/12 03:30:16;;;;;;;3.00;2.63;;;23.40;80.90;;;;;;5013683;28;20018;-71
2022/07/12 03:32:42;;;;;;;3.72;2.00;;;23.40;81.00;;;;;;5014861;28;20026;-71
2022/07/12 03:35:08;;;;;;;2.70;1.90;;;23.40;81.20;;;;;;5014530;28;20037;-72
2022/07/12 03:37:51;;;;;;;3.33;2.65;;;23.30;81.20;;;;;;5014620;28;20544;-72
2022/07/12 03:40:18;;;;;;;2.78;2.55;;;23.30;81.20;;;;;;5014673;28;20040;-71
2022/07/12 03:42:45;;;;;;;2.40;2.20;;;23.30;81.10;;;;;;5014865;28;20026;-72
2022/07/12 03:45:12;;;;;;;3.05;2.70;;;23.40;81.10;;;;;;5014390;28;20122;-72
2022/07/12 03:47:38;;;;;;;2.75;2.30;;;23.30;81.10;;;;;;5014711;28;20475;-71
2022/07/12 03:50:06;;;;;;;2.53;2.33;;;23.30;81.30;;;;;;5014003;28;20045;-72
2022/07/12 03:52:33;;;;;;;3.55;2.55;;;23.30;81.30;;;;;;5014462;28;20049;-71
2022/07/12 03:54:59;;;;;;;3.05;2.47;;;23.20;81.30;;;;;;5014367;28;20029;-71
2022/07/12 03:57:26;;;;;;;2.65;2.45;;;23.20;81.30;;;;;;5014410;28;20026;-72
2022/07/12 03:59:52;;;;;;;3.35;2.30;;;23.20;81.30;;;;;;5014319;28;20057;-72
2022/07/12 04:02:17;;;;;;;3.38;2.50;;;23.20;81.40;;;;;;5014221;28;20483;-72
2022/07/12 04:04:43;;;;;;;2.80;2.50;;;23.20;81.50;;;;;;5013908;28;20029;-71
2022/07/12 04:07:09;;;;;;;3.00;2.70;;;23.20;81.50;;;;;;5014343;28;20024;-71
2022/07/12 04:09:35;;;;;;;3.10;2.90;;;23.20;81.60;;;;;;5014294;28;20030;-72
2022/07/12 04:12:01;;;;;;;2.92;2.72;;;23.20;81.60;;;;;;4996550;28;20026;-72
2022/07/12 04:14:28;;;;;;;3.45;2.67;;;23.10;81.70;;;;;;5014058;28;20076;-72
2022/07/12 04:16:54;;;;;;;3.13;2.58;;;23.10;81.90;;;;;;5013985;28;20022;-72
2022/07/12 04:19:23;;;;;;;3.25;2.67;;;23.10;81.90;;;;;;5013803;28;20040;-72
2022/07/12 04:21:49;;;;;;;4.15;2.30;;;23.20;81.80;;;;;;5013841;28;20467;-71
2022/07/12 04:24:15;;;;;;;3.20;2.83;;;23.20;82.00;;;;;;5014074;28;20021;-72
2022/07/12 04:26:40;;;;;;;5.35;3.00;;;23.20;81.90;;;;;;5013624;28;20080;-71
2022/07/12 04:29:06;;;;;;;5.40;3.08;;;23.20;81.80;;;;;;5014199;28;20018;-72
2022/07/12 04:31:32;;;;;;;5.82;3.45;;;23.20;81.80;;;;;;5013814;28;20025;-71
2022/07/12 04:33:57;;;;;;;3.00;2.80;;;23.10;81.80;;;;;;5012164;28;20107;-71
2022/07/12 04:36:23;;;;;;;3.00;2.60;;;23.20;82.10;;;;;;5013641;28;20040;-71
2022/07/12 04:38:48;;;;;;;4.05;2.70;;;23.20;82.30;;;;;;5013659;28;20030;-71
2022/07/12 04:41:15;;;;;;;3.30;2.78;;;23.10;82.10;;;;;;5013582;28;20026;-71
2022/07/12 04:43:40;;;;;;;2.75;2.55;;;23.20;82.20;;;;;;5013549;28;20041;-72
2022/07/12 04:46:10;;;;;;;4.07;3.22;;;23.10;82.20;;;;;;5013604;28;20021;-71
2022/07/12 04:48:36;;;;;;;3.45;2.80;;;23.10;82.40;;;;;;5013193;28;20427;-71
2022/07/12 04:51:02;;;;;;;4.13;3.03;;;23.10;82.30;;;;;;4995783;28;20030;-72
2022/07/12 04:53:29;;;;;;;4.35;2.72;;;23.10;82.30;;;;;;5013621;28;20026;-72
2022/07/12 04:55:55;;;;;;;2.92;2.60;;;23.10;82.10;;;;;;5013330;28;20475;-72
2022/07/12 04:58:21;;;;;;;3.65;2.72;;;23.10;82.20;;;;;;5013284;28;20068;-72
2022/07/12 05:00:47;;;;;;;3.70;3.15;;;23.20;82.30;;;;;;5012535;28;20022;-72
2022/07/12 05:03:13;;;;;;;4.10;2.90;;;23.10;82.30;;;;;;5012251;28;20033;-72
2022/07/12 05:05:38;;;;;;;3.63;3.33;;;23.10;82.30;;;;;;5013215;28;20045;-72
2022/07/12 05:08:04;;;;;;;4.18;2.95;;;23.20;82.30;;;;;;5011873;28;20026;-71
2022/07/12 05:10:29;;;;;;;3.22;2.92;;;23.20;82.30;;;;;;5012911;28;20080;-72
2022/07/12 05:12:55;;;;;;;3.47;2.85;;;23.20;82.30;;;;;;5013180;28;20430;-71
2022/07/12 05:15:21;;;;;;;4.07;2.70;;;23.20;82.30;;;;;;4995681;28;20025;-72
2022/07/12 05:17:46;;;;;;;3.67;2.70;;;23.10;82.60;;;;;;5012791;28;20062;-71
2022/07/12 05:20:12;;;;;;;3.13;2.78;;;23.10;82.60;;;;;;5013230;28;20376;-72
2022/07/12 05:22:38;;;;;;;3.15;2.75;;;23.20;82.60;;;;;;5016180;28;20045;-72
2022/07/12 05:25:04;;;;;;;3.92;2.80;;;23.20;82.60;;;;;;5017318;28;20112;-72
2022/07/12 05:27:30;;;;;;;3.47;2.78;;;23.20;82.50;;;;;;5018935;28;20014;-72
2022/07/12 05:29:56;;;;;;;3.00;2.80;;;23.20;82.40;;;;;;5017623;28;20029;-72
2022/07/12 05:32:23;;;;;;;4.55;2.92;;;23.20;82.30;;;;;;5016515;28;20467;-72
2022/07/12 05:34:49;;;;;;;4.88;2.13;;;23.20;82.30;;;;;;5017135;28;20029;-72
2022/07/12 05:37:15;;;;;;;3.25;2.95;;;23.30;82.40;;;;;;5016794;28;20025;-71
2022/07/12 05:39:40;;;;;;;2.78;2.30;;;23.30;82.30;;;;;;5017206;28;20530;-72
2022/07/12 05:42:06;;;;;;;2.90;2.58;;;23.30;82.30;;;;;;5016691;28;20069;-72
2022/07/12 05:44:32;;;;;;;2.72;2.45;;;23.30;82.40;;;;;;5016821;28;20049;-71
2022/07/12 05:46:57;;;;;;;2.55;2.35;;;23.30;82.70;;;;;;5016492;28;20361;-72
2022/07/12 05:49:23;;;;;;;2.55;2.20;;;23.30;82.90;;;;;;5016876;28;20077;-71
2022/07/12 05:54:33;;;;;;;3.95;3.28;;;23.20;84.70;;;;;;5016854;28;20118;-72
2022/07/12 05:56:58;;;;;;;4.65;3.05;;;23.20;84.90;;;;;;5016486;28;20105;-72
2022/07/12 05:59:24;;;;;;;4.50;3.20;;;23.20;85.20;;;;;;5016461;28;20109;-72
2022/07/12 06:01:49;;;;;;;4.43;2.97;;;23.20;85.30;;;;;;5016357;28;20037;-72
2022/07/12 06:04:15;;;;;;;3.20;2.88;;;23.20;84.40;;;;;;5016548;28;20069;-72
2022/07/12 06:06:40;;;;;;;3.58;2.72;;;23.20;84.30;;;;;;5016317;28;20030;-72
2022/07/12 06:09:06;;;;;;;3.42;2.45;;;23.30;84.10;;;;;;5016621;28;20030;-72
2022/07/12 06:11:33;;;;;;;4.55;2.55;;;23.30;83.60;;;;;;5016491;28;20022;-72
2022/07/12 06:13:58;;;;;;;3.78;2.10;;;23.40;83.50;;;;;;5016049;28;20458;-72
2022/07/12 06:16:24;;;;;;;3.92;2.50;;;23.40;83.50;;;;;;5015966;28;20101;-73
2022/07/12 06:18:50;;;;;;;2.92;2.13;;;23.30;83.10;;;;;;4998762;28;20125;-72
2022/07/12 06:21:15;;;;;;;3.47;2.17;;;23.40;83.30;;;;;;5016051;28;20383;-72
2022/07/12 06:23:41;;;;;;;2.58;1.45;;;23.40;83.40;;;;;;5016059;28;20026;-71
2022/07/12 06:26:06;;;;;;;1.92;1.42;;;23.50;83.50;;;;;;5016053;28;20108;-72
2022/07/12 06:28:32;;;;;;;3.47;1.67;;;23.50;83.30;;;;;;5015921;28;20030;-71
2022/07/12 06:30:57;;;;;;;1.73;1.60;;;23.50;83.30;;;;;;5015926;28;20033;-72
2022/07/12 06:33:23;;;;;;;1.55;1.45;;;23.60;83.00;;;;;;5015716;28;20026;-72
2022/07/12 06:35:48;;;;;;;1.73;1.63;;;23.60;82.60;;;;;;5015853;28;20025;-71
2022/07/12 06:38:14;;;;;;;2.88;1.60;;;23.70;82.60;;;;;;5015805;28;20030;-72
2022/07/12 06:40:40;;;;;;;1.67;1.48;;;23.80;82.30;;;;;;5016050;28;20058;-72
2022/07/12 06:43:10;;;;;;;3.35;1.58;;;23.80;82.10;;;;;;5015655;28;20037;-72
2022/07/12 06:45:36;;;;;;;1.15;1.05;;;23.80;81.90;;;;;;5015700;28;20534;-72
2022/07/12 06:48:01;;;;;;;1.75;1.40;;;23.90;81.50;;;;;;5015781;28;20030;-72
2022/07/12 06:50:27;;;;;;;1.90;1.13;;;23.90;81.20;;;;;;4998103;28;20553;-72
2022/07/12 06:52:53;;;;;;;2.70;1.35;;;23.90;80.90;;;;;;5015782;28;20080;-72
2022/07/12 06:55:18;;;;;;;1.15;0.93;;;24.00;80.80;;;;;;5015469;28;20471;-72
2022/07/12 06:57:44;;;;;;;1.85;1.75;;;24.00;80.60;;;;;;4997985;28;20120;-72
2022/07/12 07:00:10;;;;;;;1.50;1.30;;;24.10;80.40;;;;;;5015228;28;20483;-72
2022/07/12 07:02:37;;;;;;;3.05;2.42;;;24.10;80.10;;;;;;5015386;28;20034;-72
2022/07/12 07:05:03;;;;;;;2.47;1.92;;;24.20;79.80;;;;;;5015369;28;20010;-72
2022/07/12 07:07:29;;;;;;;2.15;1.77;;;24.20;79.50;;;;;;5015424;28;20398;-72
2022/07/12 07:09:54;;;;;;;2.15;1.55;;;24.20;79.30;;;;;;5015210;28;20049;-72
2022/07/12 07:12:20;;;;;;;1.50;1.40;;;24.30;79.20;;;;;;5015084;28;20542;-72
2022/07/12 07:14:45;;;;;;;1.95;1.73;;;24.30;78.90;;;;;;5014906;28;20029;-72
2022/07/12 07:17:11;;;;;;;1.90;1.52;;;24.30;78.80;;;;;;5015366;28;20025;-72
2022/07/12 07:19:37;;;;;;;1.60;1.50;;;24.40;78.70;;;;;;5014867;28;20113;-72
2022/07/12 07:22:03;;;;;;;1.92;1.20;;;24.40;78.50;;;;;;5015096;28;20048;-71
2022/07/12 07:24:28;;;;;;;3.00;1.17;;;24.50;78.40;;;;;;4997292;28;20460;-72
2022/07/12 07:26:54;;;;;;;1.92;1.60;;;24.40;78.20;;;;;;5015156;28;20053;-72
2022/07/12 07:32:04;;;;;;;2.40;1.27;;;24.50;77.90;;;;;;5014948;28;20049;-72
2022/07/12 07:34:29;;;;;;;1.77;1.30;;;24.60;77.70;;;;;;5014734;28;20395;-72
2022/07/12 07:36:55;;;;;;;1.35;1.20;;;24.60;77.60;;;;;;5014681;28;20554;-72
2022/07/12 07:39:21;;;;;;;1.50;1.40;;;24.60;78.10;;;;;;5014659;28;20077;-72
2022/07/12 07:41:47;;;;;;;2.97;1.30;;;24.70;77.30;;;;;;5014873;28;20022;-72
2022/07/12 07:44:12;;;;;;;1.40;1.30;;;24.70;77.20;;;;;;5013973;28;20037;-72
2022/07/12 07:46:38;;;;;;;1.80;1.70;;;24.70;76.90;;;;;;5014612;28;20022;-72
2022/07/12 07:49:03;;;;;;;1.50;1.27;;;24.80;76.80;;;;;;5014697;28;20014;-72
2022/07/12 07:51:29;;;;;;;1.65;1.38;;;24.80;76.80;;;;;;4996737;28;20026;-72
2022/07/12 07:53:55;;;;;;;2.13;1.30;;;24.80;76.60;;;;;;4997067;28;20026;-72
2022/07/12 07:56:20;;;;;;;1.27;1.17;;;24.80;76.60;;;;;;5014061;28;20026;-72
2022/07/12 07:58:46;;;;;;;1.38;1.27;;;24.80;76.40;;;;;;4996944;28;20076;-72
2022/07/12 08:01:11;;;;;;;1.45;1.35;;;24.80;76.30;;;;;;4996815;28;20026;-72
2022/07/12 08:03:37;;;;;;;1.85;1.25;;;24.80;76.10;;;;;;5014352;28;20037;-72
2022/07/12 08:06:03;;;;;;;1.77;1.50;;;24.90;76.10;;;;;;5014562;28;20109;-72
2022/07/12 08:08:28;;;;;;;1.85;1.50;;;24.90;75.90;;;;;;5014453;28;20467;-72
2022/07/12 08:10:55;;;;;;;2.22;1.08;;;24.90;75.80;;;;;;5013806;28;20561;-72
2022/07/12 08:13:20;;;;;;;3.00;1.58;;;24.90;75.80;;;;;;5014013;28;20041;-71
2022/07/12 08:15:46;;;;;;;2.28;1.70;;;24.90;75.80;;;;;;4996364;28;20025;-72
2022/07/12 08:18:12;;;;;;;1.90;1.63;;;25.00;75.70;;;;;;5014183;28;20038;-72
2022/07/12 08:20:37;;;;;;;1.73;1.63;;;25.00;75.50;;;;;;5013896;28;20030;-72
2022/07/12 08:23:03;;;;;;;1.80;1.70;;;25.00;75.50;;;;;;5014230;28;20152;-72
2022/07/12 08:25:29;;;;;;;1.58;1.48;;;25.00;75.50;;;;;;5013435;28;20383;-72
2022/07/12 08:27:54;;;;;;;2.10;1.60;;;25.00;75.30;;;;;;5013753;28;20498;-72
2022/07/12 08:30:20;;;;;;;1.50;1.38;;;25.10;75.30;;;;;;4996246;28;20021;-72
2022/07/12 08:32:46;;;;;;;1.42;1.33;;;25.10;75.20;;;;;;5013914;28;20021;-72
2022/07/12 08:35:14;;;;;;;1.50;1.40;;;25.10;75.00;;;;;;5014094;28;20048;-73
2022/07/12 08:37:40;;;;;;;2.28;1.67;;;25.10;74.90;;;;;;5013494;28;20033;-72
2022/07/12 08:40:06;;;;;;;2.35;1.33;;;25.10;74.80;;;;;;5013301;28;20030;-72
2022/07/12 08:42:33;;;;;;;1.75;1.60;;;25.20;74.80;;;;;;5013716;28;20065;-72
2022/07/12 08:44:59;;;;;;;1.98;1.77;;;25.10;75.30;;;;;;5013533;28;20131;-72
2022/07/12 08:47:24;;;;;;;2.33;1.60;;;25.20;74.60;;;;;;5013681;28;20468;-72
2022/07/12 08:50:10;;;;;;;2.05;1.85;;;25.20;74.50;;;;;;5013468;28;20029;-72
2022/07/12 08:52:42;;;;;;;1.90;1.70;;;25.20;74.50;;;;;;5013376;28;20034;-72
2022/07/12 08:55:22;;;;;;;1.70;1.60;;;25.30;74.30;;;;;;5013180;28;20101;-72
2022/07/12 08:57:49;;;;;;;2.25;1.90;;;25.30;74.30;;;;;;5012887;28;20121;-72
2022/07/12 09:00:15;;;;;;;1.60;1.50;;;25.30;74.40;;;;;;5013245;28;20112;-72
2022/07/12 09:02:54;;;;;;;3.08;1.60;;;25.30;74.40;;;;;;5013334;28;20479;-72
2022/07/12 09:05:22;;;;;;;3.17;1.90;;;25.30;74.20;;;;;;5013429;28;20018;-72
2022/07/12 09:07:48;;;;;;;2.45;1.75;;;25.30;74.10;;;;;;5013317;28;20125;-72
2022/07/12 09:10:15;;;;;;;1.48;1.38;;;25.30;74.00;;;;;;5012948;28;20097;-72
2022/07/12 09:12:42;;;;;;;2.75;1.70;;;25.40;73.90;;;;;;5012833;28;20537;-72
2022/07/12 09:15:12;;;;;;;1.67;1.50;;;25.40;73.70;;;;;;5013488;28;20018;-72
2022/07/12 09:17:38;;;;;;;1.60;1.50;;;25.40;73.70;;;;;;5012983;28;20133;-72
2022/07/12 09:20:04;;;;;;;2.85;2.03;;;25.40;73.60;;;;;;5013393;28;20061;-72
2022/07/12 09:22:30;;;;;;;2.45;2.00;;;25.40;73.70;;;;;;5013164;28;20065;-72
2022/07/12 09:24:56;;;;;;;1.80;1.70;;;25.40;73.70;;;;;;5013367;28;20423;-72
2022/07/12 09:27:25;;;;;;;3.72;1.60;;;25.40;73.50;;;;;;5013931;28;20029;-72
2022/07/12 09:29:52;;;;;;;1.85;1.67;;;25.40;73.50;;;;;;5013628;28;20502;-72
2022/07/12 09:37:47;;;;;;;3.40;1.67;;;25.50;73.30;;;;;;5014561;28;20045;-71
2022/07/12 09:40:13;;;;;;;1.92;1.83;;;25.50;73.40;;;;;;5012948;28;20026;-72
2022/07/12 09:42:39;;;;;;;2.00;1.70;;;25.50;73.40;;;;;;5013290;28;20030;-72
2022/07/12 09:45:08;;;;;;;1.80;1.70;;;25.50;73.40;;;;;;5013336;28;20168;-72
2022/07/12 09:47:33;;;;;;;1.65;1.55;;;25.50;73.30;;;;;;5012848;28;20037;-72
2022/07/12 09:49:59;;;;;;;3.50;1.92;;;25.50;73.20;;;;;;5013172;28;20014;-72
2022/07/12 09:52:27;;;;;;;1.65;1.45;;;25.50;73.20;;;;;;5012498;28;20104;-72
2022/07/12 09:54:54;;;;;;;1.58;1.48;;;25.60;73.10;;;;;;5012862;28;20102;-72
2022/07/12 09:57:29;;;;;;;2.58;1.55;;;25.50;73.10;;;;;;5012982;28;20033;-72
2022/07/12 09:59:57;;;;;;;1.83;1.60;;;25.60;73.10;;;;;;5012852;28;20522;-72
2022/07/12 10:02:23;;;;;;;2.17;1.50;;;25.50;73.00;;;;;;5012913;28;20403;-72
2022/07/12 10:04:49;;;;;;;2.33;1.92;;;25.60;73.00;;;;;;5012964;28;20026;-72
2022/07/12 10:07:16;;;;;;;1.67;1.58;;;25.60;73.00;;;;;;5013124;28;20034;-72
2022/07/12 10:09:44;;;;;;;1.67;1.58;;;25.60;72.80;;;;;;5016369;28;20406;-72
2022/07/12 10:12:11;;;;;;;1.92;1.75;;;25.60;72.80;;;;;;5016703;28;20033;-72
2022/07/12 10:14:41;;;;;;;1.65;1.55;;;25.70;72.80;;;;;;5016270;28;20465;-72
2022/07/12 10:17:09;;;;;;;1.67;1.58;;;25.70;72.60;;;;;;5016472;28;20030;-72
2022/07/12 10:19:36;;;;;;;2.28;1.77;;;25.70;73.20;;;;;;4998627;28;20022;-72
2022/07/12 10:22:04;;;;;;;1.98;1.63;;;25.70;72.50;;;;;;5016248;28;20022;-72
2022/07/12 10:24:32;;;;;;;1.80;1.70;;;25.70;72.50;;;;;;5016060;28;20018;-71
2022/07/12 10:26:59;;;;;;;1.85;1.75;;;25.70;72.50;;;;;;5016370;28;20033;-72
2022/07/12 10:29:25;;;;;;;2.00;1.70;;;25.70;72.40;;;;;;5016125;28;20491;-72
2022/07/12 10:31:52;;;;;;;1.85;1.63;;;25.80;72.30;;;;;;5015931;28;20033;-72
2022/07/12 10:34:27;;;;;;;1.55;1.45;;;25.80;72.30;;;;;;5015966;28;20061;-72
2022/07/12 10:36:56;;;;;;;2.28;1.75;;;25.70;72.10;;;;;;4998748;28;20018;-72
2022/07/12 10:39:23;;;;;;;2.20;1.80;;;25.70;72.40;;;;;;5015867;28;20030;-73
2022/07/12 10:42:06;;;;;;;1.38;1.27;;;25.70;72.30;;;;;;5015541;28;20053;-72
2022/07/12 10:44:44;;;;;;;2.00;1.70;;;25.70;72.20;;;;;;5015763;28;20042;-72
2022/07/12 10:47:15;;;;;;;1.70;1.58;;;25.80;72.00;;;;;;4998225;28;20357;-72
2022/07/12 10:49:54;;;;;;;1.90;1.80;;;25.80;72.00;;;;;;5015872;28;20025;-72
2022/07/12 10:52:24;;;;;;;1.92;1.83;;;25.80;72.10;;;;;;5015536;28;20037;-72
2022/07/12 10:54:50;;;;;;;2.10;1.85;;;25.80;71.90;;;;;;5015534;28;20034;-72
2022/07/12 10:57:36;;;;;;;2.10;2.00;;;25.80;71.90;;;;;;5015572;28;20476;-72
2022/07/12 11:00:03;;;;;;;1.70;1.60;;;25.80;71.90;;;;;;5015313;28;20128;-72
2022/07/12 11:02:29;;;;;;;1.65;1.55;;;25.80;71.90;;;;;;5015687;28;20502;-72
2022/07/12 11:04:55;;;;;;;1.90;1.80;;;25.90;71.90;;;;;;4997279;28;20112;-72
2022/07/12 11:07:22;;;;;;;1.80;1.70;;;25.90;71.70;;;;;;5015434;28;20105;-72
2022/07/12 11:09:51;;;;;;;1.65;1.55;;;25.90;71.60;;;;;;4997551;28;20033;-72
2022/07/12 11:12:17;;;;;;;3.35;1.88;;;25.90;71.70;;;;;;5015532;28;20076;-72
2022/07/12 11:14:46;;;;;;;1.55;1.45;;;25.90;71.70;;;;;;5015335;28;20033;-72
2022/07/12 11:17:12;;;;;;;1.63;1.52;;;25.90;71.70;;;;;;5015237;28;20030;-72
2022/07/12 11:19:37;;;;;;;2.78;1.58;;;25.90;71.70;;;;;;5013840;28;20042;-72
2022/07/12 11:22:03;;;;;;;1.90;1.42;;;25.90;71.70;;;;;;5015169;28;20026;-72
2022/07/12 11:24:31;;;;;;;2.15;1.95;;;25.90;71.70;;;;;;5014991;28;20051;-72
2022/07/12 11:26:59;;;;;;;1.90;1.70;;;26.00;71.60;;;;;;5015012;28;20022;-72
2022/07/12 11:29:25;;;;;;;1.55;1.42;;;25.90;71.50;;;;;;5014673;28;20431;-72
2022/07/12 11:32:07;;;;;;;2.22;1.77;;;26.00;71.50;;;;;;5014879;28;20113;-72
2022/07/12 11:34:34;;;;;;;1.60;1.50;;;25.90;71.50;;;;;;5014665;28;20487;-72
2022/07/12 11:37:01;;;;;;;1.58;1.45;;;26.00;71.50;;;;;;5014958;28;20033;-72
2022/07/12 11:39:39;;;;;;;1.80;1.70;;;26.00;71.40;;;;;;5015191;28;20033;-72
2022/07/12 11:42:06;;;;;;;1.60;1.50;;;26.00;71.40;;;;;;4997470;28;20080;-72
2022/07/12 11:45:01;;;;;;;2.60;1.77;;;26.00;71.30;;;;;;5014624;28;20096;-72
2022/07/12 11:47:27;;;;;;;2.17;1.98;;;26.00;71.30;;;;;;4993688;28;20093;-72
2022/07/12 11:49:54;;;;;;;2.15;1.95;;;26.00;71.30;;;;;;5014139;28;20427;-72
2022/07/12 11:52:22;;;;;;;2.20;1.55;;;26.00;71.20;;;;;;5014606;28;20037;-72
2022/07/12 11:54:50;;;;;;;2.00;1.90;;;26.00;71.20;;;;;;5014240;28;20030;-72
2022/07/12 11:57:20;;;;;;;1.73;1.63;;;26.00;71.10;;;;;;5014444;28;20026;-72
2022/07/12 11:59:45;;;;;;;1.88;1.70;;;26.00;71.20;;;;;;5014278;28;20033;-72
2022/07/12 12:02:15;;;;;;;2.05;1.88;;;26.00;71.20;;;;;;5014281;28;20022;-72
2022/07/12 12:04:51;;;;;;;2.15;1.95;;;26.00;71.10;;;;;;5014109;28;20109;-72
2022/07/12 12:07:18;;;;;;;16.52;2.75;;;26.10;71.20;;;;;;5014424;28;20018;-72
2022/07/12 12:10:00;;;;;;;5.13;1.88;;;26.20;70.10;;;;;;5013974;28;20053;-72
2022/07/12 12:12:38;;;;;;;1.63;1.30;;;26.30;68.10;;;;;;5014301;28;20045;-72
2022/07/12 12:15:08;;;;;;;2.33;1.88;;;26.30;69.00;;;;;;4996546;28;20502;-72
2022/07/12 12:17:36;;;;;;;1.92;1.77;;;26.20;69.40;;;;;;5013603;28;20116;-72
2022/07/12 12:20:10;;;;;;;1.70;1.58;;;26.20;69.50;;;;;;5014067;28;20022;-72
2022/07/12 12:22:37;;;;;;;2.20;1.65;;;26.10;69.80;;;;;;5014175;28;20056;-72
2022/07/12 12:25:12;;;;;;;2.15;1.48;;;26.10;69.90;;;;;;5013932;28;20416;-72
2022/07/12 12:27:53;;;;;;;1.88;1.77;;;26.10;69.90;;;;;;5014035;28;20049;-72
2022/07/12 12:30:18;;;;;;;2.67;1.70;;;26.10;69.90;;;;;;5013682;28;20033;-72
2022/07/12 12:32:49;;;;;;;1.73;1.63;;;26.10;70.10;;;;;;5013659;28;20026;-72
2022/07/12 12:35:17;;;;;;;1.30;1.20;;;26.10;70.10;;;;;;4996245;28;20029;-72
2022/07/12 12:37:50;;;;;;;1.73;1.63;;;26.10;70.20;;;;;;5013815;28;20021;-72
2022/07/12 12:40:21;;;;;;;1.58;1.48;;;26.10;70.30;;;;;;5013810;28;20037;-72
2022/07/12 12:42:47;;;;;;;2.03;1.75;;;26.00;70.40;;;;;;5013646;28;20084;-72
2022/07/12 12:45:23;;;;;;;1.65;1.55;;;26.00;70.40;;;;;;5013742;28;20039;-72
2022/07/12 12:48:00;;;;;;;1.90;1.80;;;26.00;70.40;;;;;;4992405;28;20558;-72
2022/07/12 12:50:38;;;;;;;1.98;1.83;;;26.00;70.30;;;;;;5005723;28;20033;-72
2022/07/12 12:53:13;;;;;;;1.95;1.38;;;26.10;70.30;;;;;;5013519;28;20022;-72
2022/07/12 12:55:40;;;;;;;2.00;1.60;;;26.00;70.50;;;;;;5013786;28;20077;-72
2022/07/12 12:58:06;;;;;;;1.92;1.80;;;26.00;70.40;;;;;;5013318;28;20187;-72